Time;durP1;ratioP1;P1;durP2;ratioP2;P2;SDS_P1;SDS_P2;PMS_P1;PMS_P2;Temp;Humidity;BMP_temperature;BMP_pressure;BME280_temperature;BME280_humidity;BME280_pressure;Samples;Min_cycle;Max_cycle;Signal;HPM_P1;HPM_P2
2023/11/08 00:01:16;;;;;;;18.50;11.00;;;;;;;7.68;81.64;99446.50;220338;1257;140642;-72
2023/11/08 00:06:39;;;;;;;10.20;7.70;;;;;;;7.66;81.28;99432.00;220390;1256;140888;-72
2023/11/08 00:11:43;;;;;;;18.40;10.10;;;;;;;7.64;81.17;99434.98;220175;1257;140454;-72
2023/11/08 00:16:46;;;;;;;15.50;7.50;;;;;;;7.60;81.39;99431.97;220276;1256;139787;-73
2023/11/08 00:21:48;;;;;;;13.30;9.20;;;;;;;7.57;81.35;99434.42;219152;1260;141868;-70
2023/11/08 00:26:50;;;;;;;13.10;9.80;;;;;;;7.55;81.64;99441.21;220034;1257;140020;-71
2023/11/08 00:31:54;;;;;;;14.70;9.80;;;;;;;7.53;81.73;99438.70;220295;1257;140930;-71
2023/11/08 00:36:57;;;;;;;17.30;10.60;;;;;;;7.49;81.61;99428.30;220185;1260;139731;-73
2023/11/08 00:42:02;;;;;;;19.00;7.90;;;;;;;7.47;81.31;99430.41;220240;1258;141091;-74
2023/11/08 00:47:08;;;;;;;17.40;8.80;;;;;;;7.39;81.57;99420.95;220066;1257;140270;-71
2023/11/08 00:52:13;;;;;;;16.30;9.70;;;;;;;7.35;81.87;99420.41;220060;1256;246087;-73
2023/11/08 00:57:17;;;;;;;16.90;8.90;;;;;;;7.35;82.06;99422.79;219050;1257;140897;-72
2023/11/08 01:02:22;;;;;;;15.80;10.60;;;;;;;7.34;81.92;99423.58;220377;1257;140875;-74
2023/11/08 01:07:26;;;;;;;15.30;8.40;;;;;;;7.31;81.90;99417.83;217911;1260;140403;-74
2023/11/08 01:12:28;;;;;;;16.00;10.10;;;;;;;7.26;82.07;99419.06;219056;1258;140658;-72
2023/11/08 01:17:32;;;;;;;12.70;8.20;;;;;;;7.24;82.00;99415.90;220003;1258;337899;-70
2023/11/08 01:22:34;;;;;;;14.70;9.00;;;;;;;7.22;81.74;99421.43;219806;1258;140982;-71
2023/11/08 01:27:38;;;;;;;18.80;9.20;;;;;;;7.16;81.82;99417.25;220142;1256;141164;-72
2023/11/08 01:32:40;;;;;;;20.00;8.40;;;;;;;7.06;81.72;99410.34;219109;1259;141932;-71
2023/11/08 01:37:42;;;;;;;18.50;8.20;;;;;;;7.01;81.83;99408.04;220380;1257;140624;-73
2023/11/08 01:42:46;;;;;;;13.40;8.10;;;;;;;6.95;81.66;99406.59;219153;1257;140022;-71
2023/11/08 01:47:49;;;;;;;12.20;8.10;;;;;;;6.87;81.67;99409.91;219733;1257;140128;-70
2023/11/08 01:52:52;;;;;;;16.10;8.30;;;;;;;6.80;82.05;99410.67;220118;1258;140217;-69
2023/11/08 01:57:55;;;;;;;12.80;6.80;;;;;;;6.78;82.00;99407.14;220317;1257;140365;-70
2023/11/08 02:02:58;;;;;;;12.70;7.40;;;;;;;6.77;82.42;99403.93;220196;1257;140889;-70
2023/11/08 02:08:02;;;;;;;10.50;6.80;;;;;;;6.79;82.46;99403.95;220389;1257;139863;-72
2023/11/08 02:13:05;;;;;;;10.90;7.10;;;;;;;6.84;82.73;99403.83;217975;1259;140172;-71
2023/11/08 02:18:07;;;;;;;11.40;6.50;;;;;;;6.87;82.88;99407.19;220273;1257;140498;-71
2023/11/08 02:23:10;;;;;;;11.90;6.90;;;;;;;6.92;82.74;99406.81;220164;1258;139863;-71
2023/11/08 02:28:13;;;;;;;11.70;8.40;;;;;;;6.97;82.70;99408.02;219768;1257;141422;-71
2023/11/08 02:33:16;;;;;;;10.40;5.60;;;;;;;7.04;83.12;99407.94;220270;1257;140807;-71
2023/11/08 02:38:20;;;;;;;8.90;6.80;;;;;;;7.12;82.98;99407.58;220429;1258;139588;-71
2023/11/08 02:43:25;;;;;;;11.10;5.60;;;;;;;7.19;83.26;99412.61;220208;1258;140778;-73
2023/11/08 02:48:28;;;;;;;14.00;7.40;;;;;;;7.25;83.19;99413.82;218785;1260;141208;-72
2023/11/08 02:53:31;;;;;;;10.00;6.00;;;;;;;7.30;83.08;99417.27;219797;1259;140197;-73
2023/11/08 02:58:34;;;;;;;10.00;6.10;;;;;;;7.34;83.18;99419.95;220005;1257;140172;-72
2023/11/08 03:03:38;;;;;;;10.70;6.20;;;;;;;7.37;82.86;99420.15;220509;1257;140219;-73
2023/11/08 03:08:41;;;;;;;8.10;6.10;;;;;;;7.38;82.90;99417.64;220396;1257;140269;-73
2023/11/08 03:13:43;;;;;;;9.30;6.20;;;;;;;7.41;82.93;99417.14;220044;1258;139436;-72
2023/11/08 03:18:46;;;;;;;10.20;6.40;;;;;;;7.43;82.75;99418.36;220356;1256;139779;-75
2023/11/08 03:23:50;;;;;;;10.60;6.30;;;;;;;7.45;82.91;99420.91;219864;1259;139853;-77
2023/11/08 03:28:53;;;;;;;9.40;6.50;;;;;;;7.47;82.86;99423.63;220177;1258;140283;-77
2023/11/08 03:33:57;;;;;;;9.80;6.20;;;;;;;7.51;82.84;99428.04;219038;1257;139889;-76
2023/11/08 03:39:07;;;;;;;12.70;6.40;;;;;;;7.54;82.92;99431.67;220248;1257;140322;-75
2023/11/08 03:44:10;;;;;;;9.30;5.90;;;;;;;7.53;82.95;99428.58;220303;1256;139844;-80
2023/11/08 03:49:12;;;;;;;12.60;6.10;;;;;;;7.53;82.80;99427.85;220381;1257;140716;-80
2023/11/08 03:54:16;;;;;;;9.90;6.40;;;;;;;7.53;82.72;99429.36;220246;1259;140928;-76
2023/11/08 03:59:19;;;;;;;11.30;7.80;;;;;;;7.49;82.57;99425.70;220554;1257;139913;-75
2023/11/08 04:04:22;;;;;;;9.60;7.30;;;;;;;7.47;82.44;99428.65;220467;1256;141221;-74
2023/11/08 04:09:25;;;;;;;10.70;7.10;;;;;;;7.41;82.44;99427.53;219674;1255;140267;-74
2023/11/08 04:14:28;;;;;;;8.80;5.50;;;;;;;7.35;82.10;99432.45;220616;1256;140187;-72
2023/11/08 04:19:31;;;;;;;11.90;6.20;;;;;;;7.27;81.99;99439.98;220360;1256;141859;-74
2023/11/08 04:24:35;;;;;;;8.80;6.30;;;;;;;7.22;82.37;99441.30;220424;1259;140180;-75
2023/11/08 04:29:38;;;;;;;8.60;4.80;;;;;;;7.11;81.96;99444.73;220397;1259;140746;-71
2023/11/08 04:34:42;;;;;;;8.90;6.40;;;;;;;7.01;82.53;99446.72;218978;1256;139599;-71
2023/11/08 04:39:47;;;;;;;7.40;5.10;;;;;;;6.96;82.27;99444.13;219017;1258;139857;-72
2023/11/08 04:44:51;;;;;;;8.80;5.40;;;;;;;6.86;82.18;99449.38;220382;1257;140417;-73
2023/11/08 04:49:54;;;;;;;11.70;6.40;;;;;;;6.78;82.20;99452.14;220265;1257;139536;-72
2023/11/08 04:54:58;;;;;;;12.00;4.80;;;;;;;6.68;82.58;99451.05;218298;1259;140550;-71
2023/11/08 05:00:01;;;;;;;17.60;7.70;;;;;;;6.59;82.58;99455.92;220514;1257;140371;-72
2023/11/08 05:05:04;;;;;;;9.10;5.60;;;;;;;6.59;83.50;99455.39;219451;1257;140184;-71
2023/11/08 05:10:08;;;;;;;10.40;5.60;;;;;;;6.61;83.49;99456.98;219994;1259;139537;-69
2023/11/08 05:15:11;;;;;;;13.70;5.90;;;;;;;6.64;83.80;99463.88;220269;1256;140077;-69
2023/11/08 05:20:17;;;;;;;7.50;5.40;;;;;;;6.68;83.71;99463.27;219356;1257;139932;-68
2023/11/08 05:25:22;;;;;;;10.90;5.50;;;;;;;6.74;83.66;99467.38;220360;1257;141858;-70
2023/11/08 05:30:25;;;;;;;7.50;5.80;;;;;;;6.81;83.95;99467.63;220413;1256;140600;-69
2023/11/08 05:35:53;;;;;;;9.20;5.20;;;;;;;6.86;84.38;99473.91;220295;1257;139196;-70
2023/11/08 05:40:56;;;;;;;6.70;5.30;;;;;;;6.90;84.20;99470.91;220228;1258;207584;-70
2023/11/08 05:45:59;;;;;;;7.30;5.60;;;;;;;6.95;84.29;99476.38;219159;1257;139666;-69
2023/11/08 05:51:03;;;;;;;9.60;5.10;;;;;;;6.99;84.38;99477.98;220323;1257;140826;-69
2023/11/08 06:02:47;;;;;;;7.40;5.40;;;;;;;7.07;84.46;99481.06;220155;1257;386366;-69
2023/11/08 06:07:51;;;;;;;8.00;4.30;;;;;;;7.10;84.48;99482.54;220266;1256;140007;-70
2023/11/08 06:12:54;;;;;;;8.40;5.90;;;;;;;7.13;84.61;99484.27;220288;1260;140817;-71
2023/11/08 06:17:58;;;;;;;5.00;3.80;;;;;;;7.15;84.66;99483.92;220403;1257;140277;-68
2023/11/08 06:23:02;;;;;;;9.30;5.00;;;;;;;7.19;84.74;99486.80;220346;1257;140393;-68
2023/11/08 06:28:06;;;;;;;4.90;3.70;;;;;;;7.24;84.56;99491.20;219505;1257;140308;-69
2023/11/08 06:33:09;;;;;;;4.50;3.50;;;;;;;7.27;84.71;99496.71;220228;1256;140079;-69
2023/11/08 06:38:12;;;;;;;8.80;4.30;;;;;;;7.32;84.81;99502.95;220377;1256;140199;-70
2023/11/08 06:43:15;;;;;;;6.70;3.90;;;;;;;7.38;85.14;99506.25;219414;1257;139649;-72
2023/11/08 06:48:18;;;;;;;4.50;3.70;;;;;;;7.45;84.95;99512.47;220292;1257;140029;-72
2023/11/08 06:53:22;;;;;;;6.60;4.20;;;;;;;7.54;85.14;99518.88;220312;1258;139733;-71
2023/11/08 06:58:31;;;;;;;5.30;4.30;;;;;;;7.63;85.08;99517.92;219359;1257;139949;-71
2023/11/08 07:03:34;;;;;;;4.30;3.40;;;;;;;7.71;84.92;99518.96;220385;1259;140630;-71
2023/11/08 07:08:37;;;;;;;10.00;3.20;;;;;;;7.82;85.05;99521.45;218439;1260;139969;-69
2023/11/08 07:13:41;;;;;;;5.10;3.40;;;;;;;7.91;84.72;99519.90;220120;1258;139790;-70
2023/11/08 07:18:48;;;;;;;5.70;4.30;;;;;;;7.92;84.47;99521.59;220247;1258;139955;-72
2023/11/08 07:23:52;;;;;;;8.20;4.10;;;;;;;7.93;84.38;99533.72;220341;1260;140209;-71
2023/11/08 07:28:58;;;;;;;6.90;4.10;;;;;;;7.99;84.26;99531.73;220450;1257;139876;-73
2023/11/08 07:34:02;;;;;;;5.80;3.00;;;;;;;8.08;84.28;99534.30;219374;1260;139995;-71
2023/11/08 07:39:06;;;;;;;3.10;2.80;;;;;;;8.14;84.33;99532.92;220202;1260;141335;-75
2023/11/08 07:44:09;;;;;;;4.10;3.70;;;;;;;8.21;84.27;99540.67;218644;1259;139643;-71
2023/11/08 07:49:11;;;;;;;7.20;3.80;;;;;;;8.35;84.33;99542.95;219447;1258;139905;-71
2023/11/08 07:54:14;;;;;;;4.90;3.40;;;;;;;8.51;84.49;99544.52;220328;1257;139506;-75
2023/11/08 07:59:17;;;;;;;3.60;3.30;;;;;;;8.70;84.40;99550.36;220336;1257;139774;-77
2023/11/08 08:04:20;;;;;;;4.80;3.80;;;;;;;8.95;84.21;99549.41;220467;1257;140894;-75
2023/11/08 08:09:24;;;;;;;4.40;3.40;;;;;;;9.11;84.02;99553.90;220118;1257;140217;-71
2023/11/08 08:14:27;;;;;;;5.10;3.10;;;;;;;9.33;83.91;99556.27;220090;1257;140122;-73
2023/11/08 08:19:31;;;;;;;5.50;3.50;;;;;;;9.55;83.49;99551.87;219969;1258;140328;-74
2023/11/08 08:24:34;;;;;;;5.00;2.90;;;;;;;9.68;83.42;99545.94;219960;1261;139396;-73
2023/11/08 08:29:37;;;;;;;4.40;3.20;;;;;;;9.81;82.67;99546.52;219884;1261;140593;-73
2023/11/08 08:34:39;;;;;;;3.50;2.30;;;;;;;9.89;82.45;99549.15;220189;1260;140715;-69
2023/11/08 08:39:43;;;;;;;4.60;2.60;;;;;;;9.95;81.93;99549.16;218614;1260;140159;-73
2023/11/08 08:44:45;;;;;;;2.40;2.20;;;;;;;9.98;81.71;99551.48;220119;1257;140173;-68
2023/11/08 08:49:49;;;;;;;2.90;2.40;;;;;;;10.00;81.49;99555.25;219746;1260;140288;-74
2023/11/08 08:54:53;;;;;;;3.20;2.70;;;;;;;10.00;81.62;99560.30;220353;1257;141368;-71
2023/11/08 08:59:55;;;;;;;2.70;2.20;;;;;;;9.93;81.13;99565.74;217642;1260;140215;-70
2023/11/08 09:04:59;;;;;;;4.50;2.70;;;;;;;9.81;81.10;99573.25;219340;1257;140109;-70
2023/11/08 09:10:04;;;;;;;4.00;2.30;;;;;;;9.73;81.20;99574.90;220150;1258;141054;-70
2023/11/08 09:15:08;;;;;;;3.10;2.10;;;;;;;9.73;81.26;99574.70;220165;1257;139974;-73
2023/11/08 09:20:11;;;;;;;4.90;3.10;;;;;;;9.78;81.21;99575.98;218366;1257;140670;-71
2023/11/08 09:25:14;;;;;;;2.80;2.40;;;;;;;9.94;81.02;99574.61;219058;1256;140993;-71
2023/11/08 09:30:17;;;;;;;3.00;2.50;;;;;;;9.97;80.74;99571.36;220175;1257;140558;-70
2023/11/08 09:35:24;;;;;;;4.70;2.80;;;;;;;9.99;80.72;99571.77;220052;1257;140998;-72
2023/11/08 09:40:27;;;;;;;3.10;2.80;;;;;;;9.97;80.63;99569.23;218390;1260;140137;-70
2023/11/08 09:45:31;;;;;;;5.30;2.10;;;;;;;9.94;80.42;99565.93;220052;1260;140070;-69
2023/11/08 09:50:34;;;;;;;3.10;2.90;;;;;;;10.06;80.39;99567.71;220069;1257;140218;-69
2023/11/08 09:55:38;;;;;;;7.70;3.60;;;;;;;10.13;80.21;99572.34;219583;1257;140611;-68
2023/11/08 10:00:44;;;;;;;4.30;3.80;;;;;;;10.23;79.99;99569.30;220169;1257;140004;-69
2023/11/08 10:05:48;;;;;;;4.20;2.80;;;;;;;10.35;79.69;99569.04;219975;1257;140570;-71
2023/11/08 10:10:55;;;;;;;4.60;3.30;;;;;;;10.45;79.57;99558.60;220217;1256;142690;-71
2023/11/08 10:15:58;;;;;;;3.90;2.80;;;;;;;10.52;79.37;99548.54;220124;1258;140714;-71
2023/11/08 10:21:18;;;;;;;3.00;2.70;;;;;;;10.47;79.22;99551.13;220176;1256;139647;-71
2023/11/08 10:26:23;;;;;;;2.80;2.60;;;;;;;10.38;78.82;99544.08;220241;1257;140590;-69
2023/11/08 10:31:35;;;;;;;2.80;2.50;;;;;;;10.20;78.49;99546.82;220087;1257;141094;-71
2023/11/08 10:36:39;;;;;;;2.90;2.70;;;;;;;10.06;78.79;99543.60;220081;1257;140890;-69
2023/11/08 10:41:44;;;;;;;3.40;3.10;;;;;;;10.10;78.95;99550.80;220048;1257;141870;-70
2023/11/08 10:46:56;;;;;;;3.60;2.80;;;;;;;10.26;79.01;99545.27;220013;1257;141897;-71
2023/11/08 10:51:59;;;;;;;5.60;3.20;;;;;;;10.36;78.80;99541.98;220005;1257;141012;-72
2023/11/08 10:57:05;;;;;;;9.30;3.20;;;;;;;10.34;78.66;99540.02;219970;1257;140469;-71
2023/11/08 11:02:28;;;;;;;3.80;2.30;;;;;;;10.38;78.52;99543.52;220073;1257;140752;-69
2023/11/08 11:07:34;;;;;;;3.60;2.10;;;;;;;10.41;78.48;99539.17;217384;1257;141081;-70
2023/11/08 11:13:13;;;;;;;2.60;2.10;;;;;;;10.42;78.38;99532.41;219600;1257;141881;-70
2023/11/08 11:18:20;;;;;;;5.30;3.30;;;;;;;10.41;78.27;99527.98;220078;1257;140990;-69
2023/11/08 11:23:34;;;;;;;4.90;2.30;;;;;;;10.47;78.42;99524.36;219131;1257;152037;-68
2023/11/08 11:28:55;;;;;;;4.40;2.60;;;;;;;10.51;78.25;99529.12;219538;1257;141205;-70
2023/11/08 11:33:58;;;;;;;1.60;1.50;;;;;;;10.42;77.39;99535.21;219920;1257;142091;-70
2023/11/08 11:39:22;;;;;;;1.90;0.80;;;;;;;10.27;76.89;99539.14;218160;1257;139846;-72
2023/11/08 11:44:43;;;;;;;0.60;0.60;;;;;;;10.05;76.41;99542.81;218434;1260;141829;-72
2023/11/08 11:49:52;;;;;;;0.90;0.70;;;;;;;9.98;76.73;99539.02;217724;1257;140079;-73
2023/11/08 11:54:55;;;;;;;0.90;0.90;;;;;;;10.27;77.29;99535.65;218785;1257;140455;-72
2023/11/08 12:00:04;;;;;;;2.90;1.30;;;;;;;10.68;77.37;99532.85;219824;1257;140160;-72
2023/11/08 12:05:08;;;;;;;6.90;1.10;;;;;;;10.99;77.02;99531.98;219903;1256;140190;-69
2023/11/08 12:10:18;;;;;;;1.80;1.60;;;;;;;10.97;76.38;99524.92;220080;1257;141265;-69
2023/11/08 12:15:22;;;;;;;2.70;1.60;;;;;;;11.05;76.36;99537.68;219957;1257;142327;-69
2023/11/08 12:20:29;;;;;;;1.90;1.60;;;;;;;11.08;76.16;99535.80;220135;1257;141290;-69
2023/11/08 12:25:33;;;;;;;2.10;1.50;;;;;;;11.21;76.15;99535.43;219902;1257;140294;-70
2023/11/08 12:30:36;;;;;;;1.80;1.70;;;;;;;11.37;76.11;99529.20;219966;1257;153431;-67
2023/11/08 12:35:38;;;;;;;2.60;2.00;;;;;;;11.50;75.70;99530.56;219889;1257;141396;-67
2023/11/08 12:40:42;;;;;;;7.20;2.50;;;;;;;11.47;75.16;99535.33;219921;1258;140324;-68
2023/11/08 12:45:46;;;;;;;6.90;2.00;;;;;;;11.31;74.64;99536.64;220002;1257;141609;-69
2023/11/08 12:51:11;;;;;;;2.90;1.70;;;;;;;11.16;74.77;99532.46;219997;1257;141024;-68
2023/11/08 12:56:15;;;;;;;2.10;1.80;;;;;;;11.32;75.01;99527.95;220163;1257;140231;-70
2023/11/08 13:01:21;;;;;;;2.60;2.40;;;;;;;11.26;74.42;99528.23;218632;1257;139826;-69
2023/11/08 13:06:25;;;;;;;2.30;2.20;;;;;;;11.09;74.61;99524.09;219982;1257;139527;-67
2023/11/08 13:11:27;;;;;;;7.00;2.10;;;;;;;10.90;74.30;99528.59;219937;1257;141745;-68
2023/11/08 13:16:31;;;;;;;2.50;1.80;;;;;;;10.90;74.77;99529.28;219613;1257;595396;-71
2023/11/08 13:21:35;;;;;;;3.70;2.60;;;;;;;10.87;75.03;99526.19;217105;1256;142094;-69
2023/11/08 13:26:40;;;;;;;3.10;1.90;;;;;;;10.78;74.74;99523.48;220030;1257;140980;-66
2023/11/08 13:31:45;;;;;;;3.50;1.90;;;;;;;10.68;74.81;99525.66;219858;1256;140463;-69
2023/11/08 13:36:49;;;;;;;2.10;1.60;;;;;;;10.59;74.81;99526.66;220129;1257;140867;-70
2023/11/08 13:41:58;;;;;;;2.10;1.80;;;;;;;10.55;74.89;99520.58;217915;1257;140671;-72
2023/11/08 13:47:01;;;;;;;3.20;2.30;;;;;;;10.52;75.09;99516.73;218903;1257;140364;-72
2023/11/08 13:52:05;;;;;;;2.20;2.00;;;;;;;10.47;75.03;99522.88;220408;1256;140405;-70
2023/11/08 13:57:08;;;;;;;4.40;2.00;;;;;;;10.51;75.06;99531.46;220359;1257;140591;-70
2023/11/08 14:02:12;;;;;;;3.30;1.90;;;;;;;10.45;75.19;99533.55;220136;1257;140869;-70
2023/11/08 14:07:24;;;;;;;4.20;1.80;;;;;;;10.33;75.22;99545.92;219521;1257;140315;-71
2023/11/08 14:12:31;;;;;;;4.00;2.20;;;;;;;10.28;75.38;99543.09;220175;1257;140439;-71
2023/11/08 14:17:41;;;;;;;3.10;1.90;;;;;;;10.21;75.19;99546.19;220154;1257;140912;-67
2023/11/08 14:22:48;;;;;;;3.30;1.80;;;;;;;10.05;75.23;99546.55;220419;1256;140404;-70
2023/11/08 14:27:56;;;;;;;5.00;1.90;;;;;;;9.94;75.40;99551.76;220040;1257;140009;-69
2023/11/08 14:33:00;;;;;;;1.80;1.60;;;;;;;9.91;75.39;99551.95;220403;1256;140059;-68
2023/11/08 14:38:03;;;;;;;6.30;1.80;;;;;;;9.82;75.55;99547.77;220137;1257;140947;-68
2023/11/08 14:43:06;;;;;;;2.60;2.30;;;;;;;9.75;75.76;99547.37;220200;1257;140824;-71
2023/11/08 14:48:10;;;;;;;2.70;1.60;;;;;;;9.72;75.75;99548.20;220149;1257;142350;-70
2023/11/08 14:53:13;;;;;;;2.20;1.90;;;;;;;9.69;75.93;99552.36;220313;1257;139679;-70
2023/11/08 14:58:26;;;;;;;4.50;2.40;;;;;;;9.65;75.99;99549.39;220307;1256;140306;-71
2023/11/08 15:03:30;;;;;;;7.60;4.20;;;;;;;9.63;76.07;99546.94;220181;1257;141562;-71
2023/11/08 15:08:36;;;;;;;5.80;2.20;;;;;;;9.63;76.19;99549.56;220286;1257;140324;-69
2023/11/08 15:14:02;;;;;;;3.50;2.00;;;;;;;9.59;76.48;99553.03;220295;1256;139942;-69
2023/11/08 15:19:12;;;;;;;9.20;3.10;;;;;;;9.46;76.81;99562.76;220417;1257;139934;-70
2023/11/08 15:24:19;;;;;;;3.90;2.60;;;;;;;9.30;77.29;99566.47;220222;1256;139864;-70
2023/11/08 15:29:27;;;;;;;59.40;31.30;;;;;;;9.17;77.94;99571.48;220117;1256;140799;-66
2023/11/08 15:34:41;;;;;;;35.70;16.70;;;;;;;9.07;78.46;99569.23;220154;1256;141301;-72
2023/11/08 15:39:49;;;;;;;8.60;4.60;;;;;;;8.98;78.84;99566.66;218716;1257;140341;-70
2023/11/08 15:44:58;;;;;;;3.40;2.90;;;;;;;8.90;79.36;99565.71;218466;1257;139774;-70
2023/11/08 15:50:00;;;;;;;5.50;3.50;;;;;;;8.86;79.83;99568.11;219715;1257;140076;-68
2023/11/08 15:55:03;;;;;;;5.00;3.70;;;;;;;8.80;79.99;99568.02;220308;1257;140009;-70
2023/11/08 16:00:11;;;;;;;3.30;2.60;;;;;;;8.76;80.33;99565.41;220505;1256;140380;-71
2023/11/08 16:05:15;;;;;;;2.70;2.30;;;;;;;8.67;80.35;99568.64;220296;1256;139474;-74
2023/11/08 16:10:24;;;;;;;6.40;3.10;;;;;;;8.58;80.58;99570.08;220497;1259;141592;-75
2023/11/08 16:15:28;;;;;;;5.60;2.80;;;;;;;8.52;80.96;99579.29;219855;1257;139253;-72
2023/11/08 16:20:31;;;;;;;8.50;3.70;;;;;;;8.50;81.26;99578.91;220326;1257;139681;-73
2023/11/08 16:25:34;;;;;;;4.80;2.80;;;;;;;8.47;81.35;99583.40;220024;1257;140199;-76
2023/11/08 16:30:38;;;;;;;3.80;3.20;;;;;;;8.41;81.65;99588.77;220155;1257;140561;-72
2023/11/08 16:36:02;;;;;;;7.40;3.10;;;;;;;8.40;82.12;99591.61;220238;1257;140098;-76
2023/11/08 16:41:06;;;;;;;4.50;3.60;;;;;;;8.35;82.23;99594.36;220055;1257;141700;-71
2023/11/08 16:46:15;;;;;;;6.30;4.10;;;;;;;8.32;82.09;99597.53;220272;1257;140202;-71
2023/11/08 16:51:20;;;;;;;4.40;3.10;;;;;;;8.26;82.53;99594.95;220095;1258;140319;-71
2023/11/08 16:56:24;;;;;;;5.70;3.30;;;;;;;8.19;82.66;99597.65;220228;1258;141023;-73
2023/11/08 17:01:29;;;;;;;6.00;3.60;;;;;;;8.11;82.49;99603.04;220225;1257;139275;-71
2023/11/08 17:06:45;;;;;;;5.80;4.30;;;;;;;8.04;82.71;99606.55;220161;1257;141023;-71
2023/11/08 17:11:49;;;;;;;4.00;3.20;;;;;;;7.98;82.67;99607.48;219955;1256;140001;-68
2023/11/08 17:16:56;;;;;;;9.90;5.40;;;;;;;7.88;82.82;99603.84;219929;1257;140737;-69
2023/11/08 17:21:59;;;;;;;6.20;5.60;;;;;;;7.84;82.94;99605.84;220312;1255;139623;-69
2023/11/08 17:27:03;;;;;;;5.70;3.80;;;;;;;7.76;83.10;99604.64;220401;1257;141759;-71
2023/11/08 17:32:07;;;;;;;5.50;4.50;;;;;;;7.68;83.08;99604.67;219505;1257;140504;-73
2023/11/08 17:37:11;;;;;;;5.70;4.80;;;;;;;7.63;83.61;99612.94;219576;1257;139971;-73
2023/11/08 17:42:13;;;;;;;6.30;3.70;;;;;;;7.61;83.78;99618.05;220136;1258;139635;-73
2023/11/08 17:47:19;;;;;;;9.50;5.60;;;;;;;7.56;83.90;99616.35;219168;1257;139904;-75
2023/11/08 17:58:44;;;;;;;16.40;5.10;;;;;;;7.57;84.56;99624.39;220315;1257;141887;-74
2023/11/08 18:03:48;;;;;;;7.10;4.40;;;;;;;7.58;84.91;99624.73;220153;1258;139782;-75
2023/11/08 18:08:51;;;;;;;5.50;3.60;;;;;;;7.57;84.71;99628.59;220343;1257;140866;-71
2023/11/08 18:13:57;;;;;;;8.40;4.20;;;;;;;7.57;84.82;99632.30;219997;1257;139768;-70
2023/11/08 18:19:02;;;;;;;5.40;3.50;;;;;;;7.59;85.08;99635.75;220211;1257;140181;-70
2023/11/08 18:24:10;;;;;;;5.50;3.10;;;;;;;7.58;85.19;99634.62;220237;1257;140101;-69
2023/11/08 18:29:13;;;;;;;8.40;3.70;;;;;;;7.59;85.17;99636.45;220272;1256;140448;-69
2023/11/08 18:34:23;;;;;;;6.40;4.10;;;;;;;7.57;85.19;99636.70;220392;1257;140163;-72
2023/11/08 18:39:31;;;;;;;4.80;2.90;;;;;;;7.58;85.56;99643.95;220294;1259;140911;-74
2023/11/08 18:44:39;;;;;;;4.00;2.90;;;;;;;7.56;85.32;99642.23;220262;1256;139663;-73
2023/11/08 18:50:11;;;;;;;4.80;3.10;;;;;;;7.54;85.47;99645.34;220343;1257;140116;-73
2023/11/08 18:55:25;;;;;;;6.20;5.30;;;;;;;7.49;85.82;99643.45;220145;1257;141647;-74
2023/11/08 19:00:43;;;;;;;5.40;4.10;;;;;;;7.47;85.96;99645.96;220196;1256;140601;-73
2023/11/08 19:06:07;;;;;;;7.30;5.00;;;;;;;7.49;85.96;99655.74;220171;1257;140495;-72
2023/11/08 19:11:28;;;;;;;8.30;4.40;;;;;;;7.51;85.97;99661.12;220228;1256;140432;-72
2023/11/08 19:16:41;;;;;;;5.00;4.00;;;;;;;7.52;86.03;99657.98;219887;1257;141297;-72
2023/11/08 19:21:50;;;;;;;8.60;5.10;;;;;;;7.56;86.59;99670.27;220062;1258;140287;-71
2023/11/08 19:26:55;;;;;;;9.70;5.40;;;;;;;7.57;86.14;99669.02;219931;1258;139984;-70
2023/11/08 19:32:20;;;;;;;9.50;5.20;;;;;;;7.60;86.58;99672.23;217622;1259;140520;-71
2023/11/08 19:37:42;;;;;;;7.70;4.60;;;;;;;7.58;86.65;99673.71;219966;1259;140182;-71
2023/11/08 19:42:50;;;;;;;8.50;5.20;;;;;;;7.58;86.57;99671.91;218506;1257;140434;-69
2023/11/08 19:47:53;;;;;;;7.30;6.50;;;;;;;7.57;86.69;99668.86;220006;1258;140219;-71
2023/11/08 19:52:56;;;;;;;8.30;4.40;;;;;;;7.56;86.61;99675.40;217809;1259;141389;-71
2023/11/08 19:58:00;;;;;;;10.10;6.80;;;;;;;7.52;86.71;99673.71;219437;1258;140513;-70
2023/11/08 20:03:07;;;;;;;10.70;6.10;;;;;;;7.50;87.02;99674.52;218836;1261;141411;-70
2023/11/08 20:08:13;;;;;;;6.20;3.90;;;;;;;7.49;86.84;99670.92;217517;1260;139674;-69
2023/11/08 20:13:19;;;;;;;6.50;4.40;;;;;;;7.45;87.07;99672.17;220100;1257;140472;-70
2023/11/08 20:18:21;;;;;;;7.50;5.00;;;;;;;7.42;87.40;99679.86;219949;1257;140748;-70
2023/11/08 20:23:24;;;;;;;11.50;6.50;;;;;;;7.43;87.10;99674.91;217976;1258;140137;-69
2023/11/08 20:28:28;;;;;;;11.70;5.80;;;;;;;7.45;87.23;99676.09;220127;1257;139938;-71
2023/11/08 20:33:32;;;;;;;10.90;6.30;;;;;;;7.46;87.10;99679.51;220065;1256;140375;-70
2023/11/08 20:38:39;;;;;;;6.60;5.50;;;;;;;7.44;87.01;99677.45;220319;1257;140568;-72
2023/11/08 20:43:46;;;;;;;;;;;;;;;7.45;87.34;99678.86;219983;1259;140881;-70
2023/11/08 20:48:52;;;;;;;8.50;5.40;;;;;;;7.44;87.05;99683.40;220401;1257;126005;-70
2023/11/08 20:53:56;;;;;;;;;;;;;;;7.44;86.94;99683.44;220202;1257;140097;-71
2023/11/08 20:58:59;;;;;;;7.80;6.10;;;;;;;7.39;86.74;99683.80;220497;1256;128281;-70
2023/11/08 21:04:03;;;;;;;11.10;6.10;;;;;;;7.29;86.21;99680.73;220112;1256;140723;-69
2023/11/08 21:09:09;;;;;;;20.30;7.50;;;;;;;7.23;86.60;99686.08;220296;1257;140698;-68
2023/11/08 21:14:15;;;;;;;6.30;5.00;;;;;;;7.25;87.05;99691.02;218129;1259;139743;-67
2023/11/08 21:19:19;;;;;;;12.90;6.80;;;;;;;7.25;86.85;99692.77;220264;1257;139443;-71
2023/11/08 21:24:22;;;;;;;10.90;7.00;;;;;;;7.24;87.04;99698.69;220319;1257;141868;-71
2023/11/08 21:29:25;;;;;;;14.20;7.60;;;;;;;7.27;87.17;99696.83;220340;1257;141000;-71
2023/11/08 21:34:27;;;;;;;8.70;6.20;;;;;;;7.30;87.25;99696.03;219160;1258;139979;-70
2023/11/08 21:39:30;;;;;;;10.20;6.80;;;;;;;7.30;86.84;99694.70;218718;1255;139679;-72
2023/11/08 21:44:34;;;;;;;10.10;6.20;;;;;;;7.28;87.07;99692.95;220394;1257;140204;-73
2023/11/08 21:49:37;;;;;;;8.80;5.80;;;;;;;7.23;87.01;99692.45;219365;1256;139996;-70
2023/11/08 21:54:41;;;;;;;13.20;8.40;;;;;;;7.13;86.86;99688.05;218917;1257;140683;-70
2023/11/08 21:59:45;;;;;;;6.00;5.20;;;;;;;7.07;86.98;99686.58;219472;1259;140672;-71
2023/11/08 22:04:48;;;;;;;8.40;6.00;;;;;;;7.03;87.42;99687.21;218883;1257;140145;-71
2023/11/08 22:09:51;;;;;;;12.80;6.60;;;;;;;7.03;87.42;99680.70;219045;1256;139603;-71
2023/11/08 22:14:54;;;;;;;8.10;6.00;;;;;;;7.04;87.77;99682.42;220362;1257;140080;-71
2023/11/08 22:20:03;;;;;;;9.90;6.30;;;;;;;7.00;87.13;99677.91;220367;1257;140909;-71
2023/11/08 22:25:08;;;;;;;8.40;5.10;;;;;;;6.95;87.49;99678.98;220346;1257;140181;-71
2023/11/08 22:30:13;;;;;;;12.40;5.70;;;;;;;6.93;87.17;99680.55;220158;1257;140130;-70
2023/11/08 22:35:17;;;;;;;7.70;4.50;;;;;;;6.90;87.38;99684.20;220143;1259;140645;-69
2023/11/08 22:40:19;;;;;;;9.70;6.00;;;;;;;6.88;87.25;99680.17;220115;1259;140046;-70
2023/11/08 22:45:22;;;;;;;6.40;5.60;;;;;;;6.83;87.03;99681.09;220107;1257;140979;-72
2023/11/08 22:50:24;;;;;;;9.90;5.30;;;;;;;6.74;86.70;99679.84;220533;1256;140126;-69
2023/11/08 22:55:27;;;;;;;12.00;6.60;;;;;;;6.67;86.78;99678.85;220252;1257;140610;-69
2023/11/08 23:00:32;;;;;;;6.00;4.70;;;;;;;6.57;86.60;99680.35;220182;1256;139532;-69
2023/11/08 23:05:36;;;;;;;6.00;5.20;;;;;;;6.49;86.77;99681.39;220073;1257;139618;-70
2023/11/08 23:10:39;;;;;;;12.60;5.40;;;;;;;6.39;86.70;99677.89;220154;1258;140344;-69
2023/11/08 23:15:42;;;;;;;6.60;4.20;;;;;;;6.29;86.39;99675.15;220168;1259;140168;-73
2023/11/08 23:20:47;;;;;;;8.90;6.50;;;;;;;6.18;86.12;99674.52;220276;1257;140309;-71
2023/11/08 23:25:50;;;;;;;8.20;6.40;;;;;;;6.11;86.71;99677.19;220118;1260;140256;-70
2023/11/08 23:30:53;;;;;;;10.10;5.30;;;;;;;6.03;86.53;99677.55;219846;1258;141746;-71
2023/11/08 23:35:55;;;;;;;7.10;4.50;;;;;;;5.99;86.61;99672.13;220059;1259;139974;-72
2023/11/08 23:40:58;;;;;;;7.20;4.60;;;;;;;5.89;86.39;99670.05;220187;1258;140572;-73
2023/11/08 23:46:03;;;;;;;7.30;5.80;;;;;;;5.81;86.32;99669.11;218948;1257;140398;-72